Nearby METAR Reports

 

KSJC - San Jose, California, USA
Distance from station: NE 14km
Updated: 27/05/2020 23:53
Clear
Clear
 Wind from NNW
Wind: NNW 9 km/h
Temperature: 18°C
Dew Point: 14°C
Humidity: 78%
Barometer: 1012.5 hPa
Clouds: Clear
Visibility: 16 km
2020/05/28 06:53 KSJC 280653Z 33005KT 10SM CLR 18/14 A2990 RMK AO2 SLP123 LAST T01780139
KNUQ - Moffett Nas/Mtn, California, USA
Distance from station: N 14km
Updated: 28/05/2020 00:15
Clear
Clear
 Wind from NW
Wind: NW 7 km/h
Temperature: 17°C
Dew Point: 14°C
Humidity: 83%
Barometer: 1012.5 hPa
Clouds: Clear
Visibility: 16 km
2020/05/28 07:15 KNUQ 280715Z AUTO 32004KT 10SM CLR 17/14 A2990 RMK AO2
 
KPAO - Palo Alto, California, USA
Distance from station: NNW 23km
Updated: 27/05/2020 15:47
NOT Current
Clear
Clear
 Wind from NNW
Wind: NNW 30 km/h
Temperature: 26°C
Dew Point: 15°C
Humidity: 51%
Barometer: 1010.8 hPa
Clouds: Clear
Visibility: 16 km
2020/05/27 22:47 KPAO 272247Z 34016KT 10SM SKC 26/15 A2985 RMK LAST NO GPS/VOR AT NIGHT
KRHV - San Jose/Reid, California, USA
Distance from station: ENE 19km
Updated: 27/05/2020 21:50
NOT Current
Clear
Clear
 Wind from WNW
Wind: WNW 11 km/h
Temperature: 23°C
Dew Point: 13°C
Humidity: 53%
Barometer: 1012.2 hPa
Clouds: Clear
Visibility: 16 km
2020/05/28 04:50 KRHV 280450Z 30006KT 10SM SKC 23/13 A2989 RMK LAST
 
KOAK - Oakland, California, USA
Distance from station: NNW 50km
Updated: 27/05/2020 23:53
Few Clouds
Few Clouds
 Wind from WNW
Wind: WNW 19 km/h
Temperature: 14°C
Dew Point: 12°C
Humidity: 88%
Barometer: 1012.9 hPa
Clouds: Few Clouds
Visibility: 16 km
Cloud details: Few Clouds 183 m
2020/05/28 06:53 KOAK 280653Z 30010KT 10SM FEW006 14/12 A2991 RMK AO2 SLP127 T01440122
KSQL - San Carlos Airpo, California, USA
Distance from station: NW 34km
Updated: 28/05/2020 00:20
Clear
Clear
 Wind from N
Wind: N 6 km/h
Temperature: 16°C
Dew Point: 12°C
Humidity: 77%
Barometer: 1012.9 hPa
Clouds: Clear
Visibility: 16 km
2020/05/28 07:20 KSQL 280720Z AUTO 36003KT 10SM CLR 16/12 A2991 RMK AO2
 
KSFO - San Francisco, California, USA
Distance from station: NW 49km
Updated: 27/05/2020 23:56
Few Clouds
Few Clouds
 Wind from WNW
Wind: WNW 22 km/h
Temperature: 13°C
Dew Point: 11°C
Humidity: 88%
Barometer: 1012.5 hPa
Clouds: Few Clouds
Visibility: 16 km
Cloud details: Few Clouds 152 m
2020/05/28 06:56 KSFO 280656Z 30012KT 10SM FEW005 13/11 A2990 RMK AO2 SLP124 T01280106
KE16 - San Martin, California, USA
Distance from station: ESE 43km
Updated: 28/05/2020 00:05
Few Clouds
Few Clouds
 Wind from calm
Wind: Calm
Temperature: 17°C
Dew Point: 11°C
Humidity: 68%
Barometer: 1013.5 hPa
Clouds: Few Clouds
Visibility: 16 km
Cloud details: Few Clouds 1676 m
2020/05/28 07:05 KE16 280705Z AUTO 00000KT 10SM FEW055 17/11 A2993 RMK AO2 PWINO PNO
 
KWVI - Watsonville, California, USA
Distance from station: SSE 44km
Updated: 27/05/2020 23:53
Overcast
Overcast
 Wind from E
Wind: E 7 km/h
Temperature: 13°C
Dew Point: 13°C
Humidity: 100%
Barometer: 1013.5 hPa
Clouds: Overcast
Visibility: 16 km
Cloud details: Overcast 122 m
2020/05/28 06:53 KWVI 280653Z AUTO 08004KT 10SM OVC004 13/13 A2993 RMK AO2 SLP134 T01330128
KHAF - Half Moon Bay, California, USA
Distance from station: WNW 50km
Updated: 28/05/2020 00:15
Mist, Overcast
Mist, Overcast
 Wind from calm
Wind: Calm
Temperature: 12°C
Dew Point: 11°C
Humidity: 94%
Barometer: 1013.9 hPa
Summary: Mist
Clouds: Overcast
Visibility: 2 km
Cloud details: Overcast 91 m
2020/05/28 07:15 KHAF 280715Z AUTO 00000KT 1SM BR OVC003 12/11 A2994 RMK AO2
 
KHWD - Hayward, California, USA
Distance from station: N 44km
Updated: 27/05/2020 23:54
Clear
Clear
 Wind from NW
Wind: NW 9 km/h
Temperature: 14°C
Dew Point: 12°C
Humidity: 88%
Barometer: 1012.5 hPa
Clouds: Clear
Visibility: 16 km
2020/05/28 06:54 KHWD 280654Z AUTO 31005KT 10SM CLR 14/12 A2990 RMK AO2 SLP134 T01440117
KLVK - Livermore, California, USA
Distance from station: NNE 51km
Updated: 27/05/2020 23:53
Clear
Clear
 Wind from W
Wind: W 9 km/h
Temperature: 20°C
Dew Point: 10°C
Humidity: 53%
Barometer: 1011.5 hPa
Clouds: Clear
Visibility: 16 km
2020/05/28 06:53 KLVK 280653Z AUTO 28005KT 10SM CLR 20/10 A2987 RMK AO2 SLP110 T02000100